Time;durP1;ratioP1;P1;durP2;ratioP2;P2;SDS_P1;SDS_P2;PMS_P1;PMS_P2;Temp;Humidity;BMP_temperature;BMP_pressure;BME280_temperature;BME280_humidity;BME280_pressure;Samples;Min_cycle;Max_cycle;Signal;HPM_P1;HPM_P2
2022/03/20 00:00:47;;;;;;;37.00;19.05;;;22.60;28.80;;;;;;6154538;28;83204;-71
2022/03/20 00:03:47;;;;;;;37.78;20.98;;;22.60;28.60;;;;;;6154302;28;84473;-71
2022/03/20 00:06:48;;;;;;;37.30;19.98;;;22.60;28.70;;;;;;6140362;28;83200;-71
2022/03/20 00:09:48;;;;;;;36.88;20.50;;;22.60;28.80;;;;;;6132142;28;82918;-71
2022/03/20 00:12:49;;;;;;;41.15;20.05;;;22.60;28.70;;;;;;6154565;28;89689;-72
2022/03/20 00:15:50;;;;;;;33.17;18.67;;;22.60;28.90;;;;;;6150463;28;82921;-73
2022/03/20 00:18:51;;;;;;;37.00;19.85;;;22.60;28.70;;;;;;6131872;28;83285;-72
2022/03/20 00:21:51;;;;;;;40.05;20.20;;;22.60;28.90;;;;;;6131958;28;83562;-72
2022/03/20 00:24:52;;;;;;;36.92;19.83;;;22.60;29.00;;;;;;6131798;28;83146;-73
2022/03/20 00:27:53;;;;;;;37.08;20.42;;;22.60;29.00;;;;;;6131790;28;83030;-72
2022/03/20 00:30:53;;;;;;;39.13;20.75;;;22.50;28.90;;;;;;6155817;28;84876;-72
2022/03/20 00:33:54;;;;;;;35.90;20.25;;;22.50;28.60;;;;;;6159572;28;84687;-71
2022/03/20 00:36:55;;;;;;;34.47;18.73;;;22.50;28.80;;;;;;6159575;28;84513;-71
2022/03/20 00:39:55;;;;;;;33.55;20.30;;;22.50;28.70;;;;;;6148221;28;84054;-71
2022/03/20 00:42:56;;;;;;;35.50;19.23;;;22.50;28.60;;;;;;6159946;28;83088;-71
2022/03/20 00:45:56;;;;;;;35.53;19.95;;;22.50;28.70;;;;;;6153493;28;82850;-71
2022/03/20 00:48:57;;;;;;;39.58;21.42;;;22.50;28.60;;;;;;6155370;28;82761;-71
2022/03/20 00:51:58;;;;;;;36.90;20.27;;;22.50;28.50;;;;;;6159232;28;82890;-71
2022/03/20 00:55:01;;;;;;;38.85;20.13;;;22.50;28.40;;;;;;6149432;28;84266;-71
2022/03/20 00:58:10;;;;;;;35.80;20.15;;;22.50;28.60;;;;;;6137136;28;83348;-72
2022/03/20 01:01:10;;;;;;;37.70;20.48;;;22.50;28.40;;;;;;6159644;28;84785;-72
2022/03/20 01:04:12;;;;;;;36.47;20.25;;;22.50;28.20;;;;;;6157662;28;83428;-70
2022/03/20 01:07:13;;;;;;;35.60;19.88;;;22.50;28.20;;;;;;6159078;28;82710;-70
2022/03/20 01:10:13;;;;;;;41.50;20.98;;;22.50;28.30;;;;;;6141131;28;82962;-72
2022/03/20 01:13:14;;;;;;;40.53;22.08;;;22.40;28.00;;;;;;6135351;28;90585;-73
2022/03/20 01:16:14;;;;;;;38.90;20.65;;;22.40;28.10;;;;;;6136870;28;84594;-73
2022/03/20 01:19:15;;;;;;;37.20;20.48;;;22.40;28.10;;;;;;6151800;28;83037;-73
2022/03/20 01:22:16;;;;;;;35.45;20.10;;;22.40;28.00;;;;;;6144941;28;83372;-73
2022/03/20 01:25:18;;;;;;;40.30;20.60;;;22.40;28.00;;;;;;6150429;28;83473;-72
2022/03/20 01:28:18;;;;;;;41.55;21.90;;;22.40;28.10;;;;;;6157801;28;84537;-73
2022/03/20 01:31:19;;;;;;;34.95;20.00;;;22.40;28.40;;;;;;6148778;28;83884;-73
2022/03/20 01:34:20;;;;;;;36.95;21.15;;;22.40;28.00;;;;;;6138982;28;82795;-73
2022/03/20 01:37:20;;;;;;;34.47;19.58;;;22.40;28.00;;;;;;6157082;28;84142;-73
2022/03/20 01:40:21;;;;;;;39.15;21.17;;;22.40;28.00;;;;;;6157919;28;83037;-72
2022/03/20 01:43:21;;;;;;;36.25;19.58;;;22.40;28.20;;;;;;6145631;28;83954;-73
2022/03/20 01:46:22;;;;;;;37.40;20.17;;;22.40;28.10;;;;;;6149884;28;83734;-73
2022/03/20 01:49:23;;;;;;;35.08;20.02;;;22.40;28.10;;;;;;6137167;28;84321;-73
2022/03/20 01:52:24;;;;;;;35.25;18.92;;;22.40;28.00;;;;;;6157044;28;84222;-73
2022/03/20 01:55:25;;;;;;;34.33;19.42;;;22.40;28.10;;;;;;6144812;28;82800;-73
2022/03/20 01:58:25;;;;;;;40.78;21.55;;;22.40;28.30;;;;;;6154020;28;83094;-73
2022/03/20 02:01:26;;;;;;;34.25;19.63;;;22.40;28.20;;;;;;6152750;28;82942;-72
2022/03/20 02:04:26;;;;;;;37.15;19.60;;;22.30;28.00;;;;;;6154749;28;82851;-72
2022/03/20 02:07:27;;;;;;;37.20;21.02;;;22.30;28.20;;;;;;6158202;28;82975;-71
2022/03/20 02:10:35;;;;;;;37.10;19.77;;;22.40;28.20;;;;;;6158057;28;83007;-71
2022/03/20 02:13:35;;;;;;;35.97;20.92;;;22.30;28.20;;;;;;6158146;28;83119;-72
2022/03/20 02:16:36;;;;;;;35.38;19.13;;;22.30;28.10;;;;;;6155625;28;83120;-73
2022/03/20 02:19:37;;;;;;;38.83;19.98;;;22.30;28.20;;;;;;6157214;28;83040;-73
2022/03/20 02:22:37;;;;;;;39.38;19.13;;;22.30;28.30;;;;;;6155696;28;83166;-73
2022/03/20 02:25:38;;;;;;;45.55;20.70;;;22.30;28.20;;;;;;6158043;28;82934;-73
2022/03/20 02:28:39;;;;;;;37.35;20.38;;;22.30;28.30;;;;;;6145441;28;83194;-73
2022/03/20 02:31:39;;;;;;;35.38;19.77;;;22.30;28.30;;;;;;6133631;28;83030;-74
2022/03/20 02:34:40;;;;;;;35.55;19.23;;;22.30;28.30;;;;;;6152376;28;83128;-74
2022/03/20 02:37:41;;;;;;;36.85;19.40;;;22.30;28.20;;;;;;6138817;28;83195;-74
2022/03/20 02:40:41;;;;;;;37.78;20.42;;;22.30;28.00;;;;;;6151562;28;83284;-73
2022/03/20 02:43:42;;;;;;;37.00;19.52;;;22.30;28.80;;;;;;6146239;28;82996;-73
2022/03/20 02:46:42;;;;;;;35.85;19.73;;;22.30;28.30;;;;;;6146652;28;84681;-72
2022/03/20 02:49:43;;;;;;;35.55;20.67;;;22.30;28.00;;;;;;6157410;28;83609;-72
2022/03/20 02:52:43;;;;;;;36.95;19.67;;;22.30;28.00;;;;;;6156395;28;82986;-73
2022/03/20 02:55:47;;;;;;;34.58;19.25;;;22.30;28.00;;;;;;6142978;28;83327;-73
2022/03/20 02:58:47;;;;;;;38.80;19.52;;;22.20;28.40;;;;;;6156656;28;83135;-73
2022/03/20 03:01:49;;;;;;;34.95;19.70;;;22.30;28.70;;;;;;6135135;28;82915;-73
2022/03/20 03:04:49;;;;;;;36.10;20.02;;;22.30;28.00;;;;;;6157259;28;83121;-73
2022/03/20 03:11:09;;;;;;;32.28;18.15;;;22.30;27.70;;;;;;6157526;28;83444;-72
2022/03/20 03:17:29;;;;;;;32.35;18.23;;;22.20;27.90;;;;;;6132987;28;83609;-72
2022/03/20 03:20:30;;;;;;;34.15;19.63;;;22.20;28.60;;;;;;6154699;28;83896;-73
2022/03/20 03:23:31;;;;;;;33.30;18.63;;;22.20;27.90;;;;;;6149207;28;84118;-73
2022/03/20 03:26:31;;;;;;;34.65;18.90;;;22.20;28.00;;;;;;6156873;28;83184;-72
2022/03/20 03:29:32;;;;;;;35.00;18.38;;;22.20;28.20;;;;;;6156912;28;82957;-72
2022/03/20 03:32:33;;;;;;;33.97;18.92;;;22.20;28.20;;;;;;6150231;28;83151;-71
2022/03/20 03:35:42;;;;;;;28.65;16.63;;;22.20;28.20;;;;;;6132661;28;82985;-73
2022/03/20 03:38:43;;;;;;;35.53;19.45;;;22.20;28.40;;;;;;6138023;28;84539;-71
2022/03/20 03:41:43;;;;;;;30.23;17.10;;;22.20;28.20;;;;;;6131979;28;83109;-72
2022/03/20 03:44:44;;;;;;;33.88;18.30;;;22.20;28.20;;;;;;6137999;28;83588;-72
2022/03/20 03:47:44;;;;;;;31.45;17.50;;;22.20;28.40;;;;;;6157107;28;82899;-72
2022/03/20 03:50:45;;;;;;;34.10;18.13;;;22.20;28.40;;;;;;6149201;28;83544;-71
2022/03/20 03:53:46;;;;;;;36.25;18.67;;;22.20;28.70;;;;;;6141174;28;83154;-73
2022/03/20 03:56:46;;;;;;;36.45;19.02;;;22.20;29.00;;;;;;6156091;28;82953;-72
2022/03/20 03:59:47;;;;;;;29.27;16.55;;;22.20;28.20;;;;;;6156235;28;82970;-73
2022/03/20 04:02:48;;;;;;;31.45;17.50;;;22.20;29.20;;;;;;6145826;28;83296;-75
2022/03/20 04:05:48;;;;;;;30.08;17.05;;;22.20;28.70;;;;;;6160650;28;83181;-76
2022/03/20 04:08:49;;;;;;;30.80;16.45;;;22.20;28.40;;;;;;6161076;28;83020;-77
2022/03/20 04:11:49;;;;;;;26.58;15.48;;;22.10;29.00;;;;;;6160204;28;89285;-71
2022/03/20 04:14:50;;;;;;;30.05;16.27;;;22.20;29.10;;;;;;6161177;28;83044;-78
2022/03/20 04:17:51;;;;;;;30.63;17.27;;;22.30;29.00;;;;;;6160643;28;83048;-77
2022/03/20 04:20:52;;;;;;;29.08;17.13;;;22.30;28.70;;;;;;6159001;28;83254;-78
2022/03/20 04:23:52;;;;;;;30.40;18.27;;;22.40;28.80;;;;;;6160021;28;84389;-77
2022/03/20 04:26:53;;;;;;;30.20;15.95;;;22.40;28.70;;;;;;6155267;28;83372;-77
2022/03/20 04:29:54;;;;;;;32.22;18.35;;;22.50;28.70;;;;;;6160837;28;83885;-76
2022/03/20 04:32:54;;;;;;;27.17;15.70;;;22.50;28.60;;;;;;6147725;28;83069;-75
2022/03/20 04:35:55;;;;;;;30.45;17.50;;;22.60;28.90;;;;;;6144508;28;83050;-77
2022/03/20 04:38:56;;;;;;;29.25;17.42;;;22.60;28.20;;;;;;6158633;28;84448;-77
2022/03/20 04:41:56;;;;;;;31.20;17.65;;;22.70;28.10;;;;;;6154851;28;85137;-77
2022/03/20 04:44:58;;;;;;;31.80;17.80;;;22.70;28.00;;;;;;6150336;28;82978;-78
2022/03/20 05:01:16;;;;;;;31.55;18.52;;;22.80;27.60;;;;;;6142230;28;82656;-81
2022/03/20 05:04:17;;;;;;;29.67;16.73;;;22.90;27.70;;;;;;6137258;28;83257;-80
2022/03/20 05:07:18;;;;;;;27.23;16.80;;;22.90;27.80;;;;;;6158699;28;82738;-71
2022/03/20 05:13:38;;;;;;;27.98;16.85;;;22.90;28.00;;;;;;6158980;28;83064;-69
2022/03/20 05:16:39;;;;;;;33.05;16.80;;;22.90;27.90;;;;;;6157248;28;83938;-72
2022/03/20 05:19:40;;;;;;;36.80;18.30;;;22.90;28.30;;;;;;6146671;28;83662;-70
2022/03/20 05:22:41;;;;;;;30.23;16.30;;;23.00;28.20;;;;;;6145463;28;83245;-72
2022/03/20 05:25:41;;;;;;;25.38;14.02;;;23.00;28.70;;;;;;6147951;28;83027;-73
2022/03/20 05:28:42;;;;;;;23.20;13.38;;;23.00;30.10;;;;;;6151412;28;83031;-63
2022/03/20 05:31:42;;;;;;;19.50;11.02;;;23.00;31.00;;;;;;6137725;28;83029;-74
2022/03/20 05:34:43;;;;;;;18.85;11.15;;;23.00;32.00;;;;;;6151081;28;84232;-73
2022/03/20 05:37:44;;;;;;;17.02;9.98;;;23.00;32.80;;;;;;6155016;28;83598;-71
2022/03/20 05:40:46;;;;;;;17.55;9.23;;;23.00;34.30;;;;;;6156897;28;83146;-71
2022/03/20 05:43:47;;;;;;;16.17;9.23;;;23.00;34.30;;;;;;6142241;28;85058;-72
2022/03/20 05:46:48;;;;;;;18.63;10.88;;;23.10;34.70;;;;;;6155145;28;81372;-75
2022/03/20 05:49:49;;;;;;;17.92;9.15;;;23.10;35.30;;;;;;6143382;28;84119;-75
2022/03/20 05:52:50;;;;;;;15.35;8.80;;;23.10;35.80;;;;;;6151346;28;84108;-76
2022/03/20 05:59:10;;;;;;;19.40;9.20;;;23.00;36.50;;;;;;6152196;28;82781;-75
2022/03/20 06:02:10;;;;;;;18.95;9.35;;;23.10;36.50;;;;;;6146676;28;83380;-73
2022/03/20 06:05:11;;;;;;;14.95;9.48;;;23.10;36.60;;;;;;6140885;28;80708;-74
2022/03/20 06:08:12;;;;;;;16.33;9.75;;;23.10;36.70;;;;;;6161656;28;80479;-73
2022/03/20 06:11:13;;;;;;;15.75;8.32;;;23.10;36.60;;;;;;6150576;28;80249;-69
2022/03/20 06:14:13;;;;;;;17.13;10.13;;;23.10;36.40;;;;;;6146315;28;80738;-73
2022/03/20 06:17:15;;;;;;;14.27;8.48;;;23.20;36.50;;;;;;6148288;28;82774;-75
2022/03/20 06:20:16;;;;;;;14.52;7.97;;;23.20;36.70;;;;;;6160832;28;83019;-73
2022/03/20 06:23:16;;;;;;;15.02;8.55;;;23.20;36.60;;;;;;6146215;28;80408;-74
2022/03/20 06:26:17;;;;;;;17.27;9.70;;;23.20;37.20;;;;;;6149622;28;80365;-73
2022/03/20 06:29:18;;;;;;;18.67;10.02;;;23.20;37.00;;;;;;6146494;28;80358;-77
2022/03/20 06:32:18;;;;;;;16.00;8.98;;;23.20;37.20;;;;;;6150534;28;82696;-78
2022/03/20 06:35:19;;;;;;;17.02;9.55;;;23.30;37.10;;;;;;6149217;28;81620;-80
2022/03/20 06:38:19;;;;;;;18.52;9.85;;;23.30;36.90;;;;;;6153745;28;81181;-80
2022/03/20 06:41:20;;;;;;;17.17;9.18;;;23.30;36.90;;;;;;6146825;28;80271;-77
2022/03/20 06:44:21;;;;;;;18.85;11.43;;;23.30;37.30;;;;;;6151486;28;80993;-76
2022/03/20 06:47:23;;;;;;;20.98;10.18;;;23.20;37.20;;;;;;6147597;28;82870;-73
2022/03/20 06:50:24;;;;;;;20.23;10.95;;;23.20;37.30;;;;;;6152010;28;83302;-80
2022/03/20 06:53:25;;;;;;;18.38;10.43;;;23.20;37.50;;;;;;6138071;28;83997;-74
2022/03/20 06:56:27;;;;;;;15.80;9.82;;;23.20;37.10;;;;;;6139172;28;83365;-75
2022/03/20 06:59:28;;;;;;;18.95;9.55;;;23.30;37.10;;;;;;6156729;28;83010;-77
2022/03/20 07:02:28;;;;;;;20.42;10.60;;;23.30;37.20;;;;;;6157978;28;80306;-78
2022/03/20 07:05:29;;;;;;;18.85;9.77;;;23.30;36.90;;;;;;6156908;28;82938;-74
2022/03/20 07:08:30;;;;;;;17.67;9.80;;;23.30;37.60;;;;;;6160731;28;83054;-77
2022/03/20 07:11:34;;;;;;;16.77;9.50;;;23.40;37.40;;;;;;6139144;28;80479;-76
2022/03/20 07:14:34;;;;;;;16.65;9.75;;;23.30;37.70;;;;;;6136452;28;81653;-75
2022/03/20 07:17:37;;;;;;;15.77;10.02;;;23.30;38.00;;;;;;6136022;28;80599;-64
2022/03/20 07:20:37;;;;;;;18.02;9.90;;;23.30;37.80;;;;;;6151559;28;83122;-70
2022/03/20 07:23:38;;;;;;;18.52;9.85;;;23.20;37.20;;;;;;6149472;28;82828;-70
2022/03/20 07:29:58;;;;;;;14.88;8.95;;;23.20;37.60;;;;;;6145062;28;85991;-68
2022/03/20 07:32:59;;;;;;;16.08;9.98;;;23.30;38.00;;;;;;6145001;28;80816;-68
2022/03/20 07:35:59;;;;;;;15.15;8.82;;;23.20;37.40;;;;;;6132840;28;83414;-70
2022/03/20 07:39:00;;;;;;;19.63;10.63;;;23.20;38.00;;;;;;6151774;28;83416;-73
2022/03/20 07:42:01;;;;;;;16.95;9.65;;;23.30;38.10;;;;;;6151928;28;83296;-72
2022/03/20 07:45:03;;;;;;;21.63;9.75;;;23.20;37.90;;;;;;6149646;28;83142;-71
2022/03/20 07:48:03;;;;;;;16.92;9.40;;;23.30;37.80;;;;;;6150020;28;80511;-73
2022/03/20 07:51:04;;;;;;;17.83;9.75;;;23.20;37.70;;;;;;6153131;28;80545;-75
2022/03/20 07:54:04;;;;;;;18.98;9.88;;;23.10;38.20;;;;;;6147890;28;80385;-76
2022/03/20 07:57:05;;;;;;;15.05;9.43;;;23.10;38.00;;;;;;6147462;28;80846;-75
2022/03/20 08:00:06;;;;;;;16.73;10.05;;;22.90;38.40;;;;;;6146443;28;83497;-74
2022/03/20 08:03:12;;;;;;;16.42;9.50;;;22.80;38.70;;;;;;6143105;28;83891;-74
2022/03/20 08:06:15;;;;;;;17.25;9.90;;;22.90;38.70;;;;;;6147815;28;83436;-75
2022/03/20 08:09:15;;;;;;;17.63;8.68;;;22.90;38.60;;;;;;6155483;28;80829;-73
2022/03/20 08:12:16;;;;;;;17.95;9.45;;;23.00;38.50;;;;;;6154628;28;80570;-72
2022/03/20 08:15:17;;;;;;;15.60;9.65;;;23.10;38.80;;;;;;6161627;28;81478;-73
2022/03/20 08:18:17;;;;;;;17.73;9.57;;;23.10;38.40;;;;;;6154561;28;81354;-76
2022/03/20 08:21:18;;;;;;;15.68;9.00;;;23.10;38.00;;;;;;6151849;28;80710;-76
2022/03/20 08:24:18;;;;;;;15.68;8.98;;;23.10;38.30;;;;;;6150288;28;81709;-76
2022/03/20 08:27:23;;;;;;;19.65;9.93;;;23.20;39.00;;;;;;6158830;28;80421;-73
2022/03/20 08:30:24;;;;;;;14.77;9.05;;;23.20;39.80;;;;;;6158258;28;80521;-70
2022/03/20 08:33:24;;;;;;;16.60;8.65;;;23.30;41.30;;;;;;6159187;28;81255;-78
2022/03/20 08:36:25;;;;;;;14.63;9.15;;;23.40;41.60;;;;;;6160626;28;81976;-74
2022/03/20 08:39:26;;;;;;;16.00;9.27;;;23.40;41.50;;;;;;6161223;28;80299;-76
2022/03/20 08:42:27;;;;;;;19.27;9.43;;;23.40;41.30;;;;;;6156834;28;82005;-74
2022/03/20 08:45:29;;;;;;;15.60;8.55;;;23.40;40.90;;;;;;6152488;28;80506;-78
2022/03/20 08:48:30;;;;;;;15.65;8.90;;;23.40;41.50;;;;;;6139436;28;80508;-76
2022/03/20 08:51:31;;;;;;;13.98;7.82;;;23.40;41.30;;;;;;6138710;28;80180;-75
2022/03/20 08:54:32;;;;;;;16.40;8.43;;;23.40;42.00;;;;;;6153792;28;80765;-82
2022/03/20 08:57:32;;;;;;;17.30;8.18;;;23.50;41.60;;;;;;6148120;28;81396;-72
2022/03/20 09:00:33;;;;;;;15.25;8.57;;;23.60;42.20;;;;;;6143308;28;80423;-76
2022/03/20 09:03:33;;;;;;;13.75;7.55;;;23.60;41.30;;;;;;6162123;28;81124;-76
2022/03/20 09:06:34;;;;;;;11.32;7.38;;;23.50;40.70;;;;;;6162507;28;80512;-67
2022/03/20 09:09:34;;;;;;;24.83;8.73;;;23.50;40.90;;;;;;6147481;28;80079;-66
2022/03/20 09:12:35;;;;;;;14.43;7.50;;;23.50;40.40;;;;;;6136382;28;80587;-69
2022/03/20 09:15:36;;;;;;;11.48;7.60;;;23.40;40.10;;;;;;6137924;28;80427;-75
2022/03/20 09:21:55;;;;;;;14.30;8.23;;;23.30;40.20;;;;;;6143052;28;80651;-74
2022/03/20 09:24:56;;;;;;;39.60;17.08;;;23.20;40.90;;;;;;6163095;28;80646;-79
2022/03/20 09:27:56;;;;;;;103.07;48.35;;;23.20;41.00;;;;;;6142283;28;82997;-74
2022/03/20 09:30:57;;;;;;;109.45;47.80;;;23.20;40.50;;;;;;6134167;28;83136;-77
2022/03/20 09:33:57;;;;;;;106.38;48.88;;;23.20;40.80;;;;;;6147276;28;83323;-78
2022/03/20 09:36:58;;;;;;;129.73;59.17;;;23.20;41.10;;;;;;6144693;28;83090;-78
2022/03/20 09:39:58;;;;;;;158.43;72.60;;;23.40;41.60;;;;;;6158761;28;83396;-76
2022/03/20 09:42:59;;;;;;;152.45;71.65;;;23.40;41.40;;;;;;6145714;28;83449;-78
2022/03/20 09:46:00;;;;;;;128.88;59.50;;;23.50;41.60;;;;;;6147869;28;83069;-75
2022/03/20 09:49:00;;;;;;;107.70;51.10;;;23.50;41.80;;;;;;6152337;28;83413;-76
2022/03/20 09:52:01;;;;;;;86.22;41.15;;;23.50;41.40;;;;;;6147544;28;83208;-74
2022/03/20 09:55:01;;;;;;;79.80;38.88;;;23.60;41.30;;;;;;6144309;28;83406;-70
2022/03/20 09:58:02;;;;;;;71.03;32.30;;;23.70;41.30;;;;;;6147151;28;82922;-74
2022/03/20 10:01:03;;;;;;;70.25;29.73;;;23.70;41.70;;;;;;6156948;28;82752;-72
2022/03/20 10:04:03;;;;;;;48.80;24.02;;;23.80;41.50;;;;;;6152867;28;83265;-71
2022/03/20 10:07:06;;;;;;;43.35;21.45;;;23.80;41.50;;;;;;6155780;28;84252;-76
2022/03/20 10:10:07;;;;;;;43.60;20.92;;;23.80;41.80;;;;;;6156971;28;83147;-74
2022/03/20 10:13:08;;;;;;;36.92;17.52;;;23.90;41.50;;;;;;6135846;28;83032;-72
2022/03/20 10:16:08;;;;;;;32.85;17.73;;;23.90;41.80;;;;;;6153384;28;83975;-73
2022/03/20 10:19:10;;;;;;;25.77;15.55;;;24.00;41.50;;;;;;6153748;28;82906;-73
2022/03/20 10:22:11;;;;;;;24.05;13.35;;;24.10;41.50;;;;;;6152747;28;84464;-71
2022/03/20 10:25:12;;;;;;;28.17;15.07;;;24.00;41.20;;;;;;6147500;28;82808;-71
2022/03/20 10:28:12;;;;;;;26.30;13.77;;;24.10;41.60;;;;;;6157332;28;82833;-70
2022/03/20 10:31:15;;;;;;;21.08;11.40;;;24.10;41.50;;;;;;6144608;28;84813;-74
2022/03/20 10:34:16;;;;;;;21.73;10.80;;;24.20;40.90;;;;;;6154079;28;83572;-74
2022/03/20 10:37:16;;;;;;;19.88;10.63;;;24.30;41.60;;;;;;6144673;28;86086;-74
2022/03/20 10:40:17;;;;;;;21.13;10.52;;;24.30;41.00;;;;;;6149712;28;82871;-74
2022/03/20 10:43:18;;;;;;;20.52;10.18;;;24.30;40.30;;;;;;6155626;28;84174;-80
2022/03/20 10:46:19;;;;;;;19.90;10.20;;;24.30;40.20;;;;;;6141269;28;83904;-74
2022/03/20 10:49:19;;;;;;;18.02;9.60;;;24.40;40.60;;;;;;6138312;28;84090;-73
2022/03/20 10:52:21;;;;;;;16.92;8.70;;;24.40;41.40;;;;;;6146569;28;82895;-74
2022/03/20 10:55:21;;;;;;;11.32;7.38;;;24.60;41.80;;;;;;6149823;28;80535;-75
2022/03/20 10:58:26;;;;;;;17.52;8.18;;;24.60;42.10;;;;;;6142146;28;80864;-72
2022/03/20 11:01:26;;;;;;;13.60;7.50;;;24.60;41.90;;;;;;6160706;28;80484;-73
2022/03/20 11:04:28;;;;;;;12.85;7.07;;;24.70;42.10;;;;;;6157956;28;80534;-72
2022/03/20 11:07:28;;;;;;;10.23;5.90;;;24.70;42.10;;;;;;6141868;28;81348;-73
2022/03/20 11:10:29;;;;;;;10.18;5.63;;;24.70;42.40;;;;;;6148896;28;81642;-72
2022/03/20 11:13:29;;;;;;;8.68;5.75;;;24.70;42.90;;;;;;6159394;28;81449;-73
2022/03/20 11:16:30;;;;;;;15.20;6.82;;;24.80;42.90;;;;;;6145762;28;80565;-66
2022/03/20 11:19:31;;;;;;;12.75;7.43;;;24.80;43.60;;;;;;6154064;28;80468;-70
2022/03/20 11:22:31;;;;;;;10.65;6.25;;;24.90;42.20;;;;;;6159553;28;81962;-72
2022/03/20 11:25:32;;;;;;;12.25;6.78;;;24.90;41.80;;;;;;6151500;28;80531;-73
2022/03/20 11:28:32;;;;;;;10.80;6.35;;;24.90;41.70;;;;;;6158640;28;81596;-74
2022/03/20 11:31:34;;;;;;;13.73;6.32;;;25.00;41.70;;;;;;6159453;28;80391;-73
2022/03/20 11:34:35;;;;;;;8.15;5.60;;;25.00;42.20;;;;;;6158647;28;80276;-70
2022/03/20 11:37:37;;;;;;;10.60;5.70;;;25.00;42.20;;;;;;6149159;28;80484;-71
2022/03/20 11:40:41;;;;;;;9.60;4.93;;;25.00;42.90;;;;;;6159420;28;81741;-73
2022/03/20 11:43:41;;;;;;;6.30;4.70;;;25.00;42.90;;;;;;6158229;28;80586;-70
2022/03/20 11:46:44;;;;;;;10.55;5.00;;;25.00;42.90;;;;;;6156791;28;81294;-76
2022/03/20 11:49:45;;;;;;;9.18;4.88;;;25.10;42.90;;;;;;6135689;28;80120;-78
2022/03/20 11:52:45;;;;;;;9.10;4.95;;;25.10;43.00;;;;;;6155405;28;81489;-80
2022/03/20 11:55:46;;;;;;;7.65;4.55;;;25.10;42.60;;;;;;6144619;28;80643;-76
2022/03/20 11:58:47;;;;;;;9.38;4.70;;;25.10;42.50;;;;;;6152313;28;80508;-77
2022/03/20 12:01:47;;;;;;;7.07;4.40;;;25.10;42.30;;;;;;6153310;28;80712;-76
2022/03/20 12:04:48;;;;;;;9.18;4.55;;;25.10;43.10;;;;;;6143964;28;80318;-73
2022/03/20 12:07:49;;;;;;;10.05;3.88;;;25.10;42.40;;;;;;6146736;28;81669;-78
2022/03/20 12:10:49;;;;;;;5.70;3.22;;;25.10;42.50;;;;;;6149139;28;80411;-77
2022/03/20 12:13:50;;;;;;;6.00;3.92;;;25.10;42.10;;;;;;6139787;28;81238;-75
2022/03/20 12:16:50;;;;;;;5.63;3.70;;;25.10;42.60;;;;;;6147449;28;80459;-78
2022/03/20 12:19:55;;;;;;;9.25;4.30;;;25.10;42.30;;;;;;6149197;28;80988;-76
2022/03/20 12:22:56;;;;;;;6.40;3.83;;;25.10;42.00;;;;;;6149943;28;81108;-74
2022/03/20 12:25:56;;;;;;;6.65;4.03;;;25.10;41.60;;;;;;6153009;28;80465;-78
2022/03/20 12:28:59;;;;;;;5.65;3.28;;;25.10;41.30;;;;;;6155449;28;81070;-76
2022/03/20 12:32:00;;;;;;;6.57;3.85;;;25.20;40.40;;;;;;6157907;28;81543;-78
2022/03/20 12:35:03;;;;;;;7.03;3.67;;;25.20;39.90;;;;;;6155672;28;80941;-78
2022/03/20 12:38:04;;;;;;;4.55;3.13;;;25.20;39.30;;;;;;6163493;28;81689;-77
2022/03/20 12:41:04;;;;;;;5.05;3.30;;;25.20;39.30;;;;;;6147397;28;80679;-74
2022/03/20 12:44:08;;;;;;;4.22;3.25;;;25.20;39.30;;;;;;6146675;28;80438;-77
2022/03/20 12:47:08;;;;;;;4.90;3.33;;;25.20;38.60;;;;;;6152477;28;80164;-77
2022/03/20 12:50:09;;;;;;;5.82;3.50;;;25.30;38.30;;;;;;6146739;28;80552;-78
2022/03/20 12:53:11;;;;;;;3.90;2.90;;;25.20;38.10;;;;;;6140531;28;80166;-76
2022/03/20 12:56:21;;;;;;;4.40;2.95;;;25.30;38.40;;;;;;6142778;28;80341;-76
2022/03/20 12:59:23;;;;;;;4.00;2.97;;;25.30;38.10;;;;;;6150342;28;80375;-78
2022/03/20 13:02:24;;;;;;;8.02;3.38;;;25.30;37.20;;;;;;6158996;28;80351;-75
2022/03/20 13:05:24;;;;;;;4.32;3.05;;;25.30;37.30;;;;;;6163594;28;80646;-78
2022/03/20 13:08:25;;;;;;;4.57;3.00;;;25.30;37.40;;;;;;6141347;28;81419;-77
2022/03/20 13:14:45;;;;;;;5.60;3.10;;;25.30;37.00;;;;;;6152873;28;80354;-75
2022/03/20 13:17:45;;;;;;;4.53;2.97;;;25.30;36.70;;;;;;6154507;28;80708;-75
2022/03/20 13:20:46;;;;;;;6.32;3.50;;;25.30;36.60;;;;;;6163454;28;80671;-75
2022/03/20 13:23:47;;;;;;;4.65;3.17;;;25.30;36.00;;;;;;6165256;28;81292;-75
2022/03/20 13:26:47;;;;;;;3.75;2.83;;;25.30;35.60;;;;;;6169697;28;80309;-78
2022/03/20 13:29:48;;;;;;;3.08;2.65;;;25.30;35.50;;;;;;6166643;28;80301;-71
2022/03/20 13:32:48;;;;;;;4.97;2.80;;;25.30;35.40;;;;;;6144394;28;80810;-73
2022/03/20 13:35:49;;;;;;;3.95;2.90;;;25.30;35.40;;;;;;6137510;28;82051;-74
2022/03/20 13:38:50;;;;;;;3.53;2.78;;;25.30;35.40;;;;;;6142939;28;87009;-71
2022/03/20 13:41:50;;;;;;;4.90;3.25;;;25.30;35.60;;;;;;6158460;28;80313;-71
2022/03/20 13:44:51;;;;;;;4.50;3.13;;;25.40;36.50;;;;;;6161662;28;80371;-71
2022/03/20 13:47:51;;;;;;;3.97;2.92;;;25.30;35.40;;;;;;6162346;28;80432;-75
2022/03/20 13:50:52;;;;;;;3.85;2.60;;;25.40;35.50;;;;;;6151377;28;80361;-74
2022/03/20 13:53:52;;;;;;;4.93;3.13;;;25.30;34.90;;;;;;6146954;28;81196;-74
2022/03/20 13:56:53;;;;;;;4.68;2.45;;;25.30;34.50;;;;;;6143424;28;80349;-72
2022/03/20 13:59:53;;;;;;;5.40;2.65;;;25.30;34.60;;;;;;6151101;28;80874;-71
2022/03/20 14:02:54;;;;;;;7.50;2.95;;;25.30;34.50;;;;;;6160336;28;82034;-71
2022/03/20 14:05:55;;;;;;;3.70;2.45;;;25.30;34.50;;;;;;6162016;28;80368;-73
2022/03/20 14:08:55;;;;;;;5.30;3.20;;;25.30;34.80;;;;;;6160735;28;81473;-76
2022/03/20 14:11:56;;;;;;;4.47;3.20;;;25.30;34.30;;;;;;6161440;28;80939;-79
2022/03/20 14:14:56;;;;;;;4.07;3.08;;;25.30;34.50;;;;;;6147921;28;80366;-72
2022/03/20 14:17:57;;;;;;;4.05;2.80;;;25.30;34.50;;;;;;6156586;28;80389;-79
2022/03/20 14:20:58;;;;;;;5.85;3.72;;;25.30;34.50;;;;;;6160476;28;80889;-76
2022/03/20 14:23:58;;;;;;;3.97;2.60;;;25.20;34.30;;;;;;6158651;28;80461;-75
2022/03/20 14:26:59;;;;;;;4.72;3.00;;;25.20;34.50;;;;;;6154436;28;80538;-76
2022/03/20 14:39:58;;;;;;;4.45;2.88;;;25.20;34.50;;;;;;6150745;28;80605;-76
2022/03/20 14:42:58;;;;;;;3.92;2.75;;;25.20;34.40;;;;;;6150258;28;81509;-75
2022/03/20 14:46:00;;;;;;;3.70;2.78;;;25.20;34.40;;;;;;6155286;28;81445;-78
2022/03/20 14:49:00;;;;;;;3.70;2.55;;;25.20;34.40;;;;;;6151225;28;81929;-80
2022/03/20 14:52:02;;;;;;;3.25;2.42;;;25.20;34.10;;;;;;6157443;28;80545;-78
2022/03/20 14:55:04;;;;;;;3.33;2.40;;;25.20;33.90;;;;;;6157613;28;81682;-78
2022/03/20 14:58:05;;;;;;;3.30;2.60;;;25.10;34.10;;;;;;6153449;28;80903;-77
2022/03/20 15:01:06;;;;;;;3.03;2.33;;;25.10;33.30;;;;;;6150037;28;80730;-80
2022/03/20 15:04:06;;;;;;;4.97;2.50;;;25.10;33.40;;;;;;6154529;28;80342;-76
2022/03/20 15:07:07;;;;;;;4.13;2.67;;;25.10;33.70;;;;;;6158585;28;80897;-80
2022/03/20 15:13:26;;;;;;;3.05;2.47;;;25.10;33.60;;;;;;6155310;28;80567;-80
2022/03/20 15:16:27;;;;;;;2.55;2.00;;;25.10;33.60;;;;;;6141815;28;81486;-80
2022/03/20 15:19:28;;;;;;;3.50;2.13;;;25.10;33.50;;;;;;6147713;28;80775;-75
2022/03/20 15:22:28;;;;;;;8.60;2.67;;;25.10;34.30;;;;;;6149607;28;80487;-69
2022/03/20 15:25:29;;;;;;;4.35;2.75;;;25.10;34.20;;;;;;6136679;28;80350;-68
2022/03/20 15:28:31;;;;;;;3.20;2.10;;;25.10;34.30;;;;;;6149313;28;80681;-75
2022/03/20 15:31:32;;;;;;;2.67;2.17;;;25.10;34.20;;;;;;6150906;28;80495;-75
2022/03/20 15:34:34;;;;;;;4.22;2.20;;;25.10;34.70;;;;;;6139019;28;81574;-73
2022/03/20 15:37:35;;;;;;;4.40;2.75;;;25.10;34.80;;;;;;6146458;28;80433;-74
2022/03/20 15:40:35;;;;;;;127.43;56.95;;;25.10;34.50;;;;;;6153608;28;82327;-74
2022/03/20 15:43:36;;;;;;;151.85;72.30;;;25.00;34.60;;;;;;6146442;28;83496;-74
2022/03/20 15:46:38;;;;;;;86.43;41.55;;;25.00;34.80;;;;;;6133990;28;83744;-73
2022/03/20 15:49:38;;;;;;;81.07;36.83;;;24.90;35.00;;;;;;6155277;28;82913;-73
2022/03/20 15:52:39;;;;;;;177.02;82.25;;;24.90;35.00;;;;;;6129898;28;84125;-76
2022/03/20 15:55:40;;;;;;;247.10;120.10;;;24.90;34.80;;;;;;6137211;28;84444;-72
2022/03/20 15:58:41;;;;;;;239.05;112.38;;;24.80;35.20;;;;;;6136148;28;85647;-68
2022/03/20 16:01:41;;;;;;;161.32;76.55;;;24.70;34.90;;;;;;6132501;28;85417;-70
2022/03/20 16:04:42;;;;;;;152.38;70.72;;;24.70;34.90;;;;;;6146215;28;85933;-72
2022/03/20 16:07:42;;;;;;;148.02;68.25;;;24.70;35.00;;;;;;6159553;28;84260;-70
2022/03/20 16:10:43;;;;;;;130.48;61.15;;;24.70;34.80;;;;;;6146024;28;82967;-71
2022/03/20 16:13:43;;;;;;;120.25;57.15;;;24.70;34.00;;;;;;6136269;28;83461;-71